createdAt,value
2017-06-14T00:00:39.121Z,65.3
2017-06-14T00:01:38.314Z,65.4
2017-06-14T00:02:37.541Z,65.6
2017-06-14T00:03:36.770Z,65.5
2017-06-14T00:04:35.999Z,65.6
2017-06-14T00:05:35.110Z,65.5
2017-06-14T00:06:34.734Z,65.7
2017-06-14T00:07:33.964Z,66.2
2017-06-14T00:08:32.966Z,66.2
2017-06-14T00:09:32.352Z,66.3
2017-06-14T00:10:31.970Z,66.3
2017-06-14T00:11:31.093Z,66.2
2017-06-14T00:12:31.489Z,66.2
2017-06-14T00:13:29.479Z,66.4
2017-06-14T00:14:28.592Z,66.8
2017-06-14T00:16:27.108Z,66.7
2017-06-14T00:17:26.344Z,66.7
2017-06-14T00:18:26.071Z,66.8
2017-06-14T00:20:24.082Z,67.1
2017-06-14T00:21:23.821Z,67.3
2017-06-14T00:22:23.057Z,67.4
2017-06-14T00:23:22.292Z,67.5
2017-06-14T00:24:22.053Z,67.6
2017-06-14T00:25:20.666Z,67.7
2017-06-14T00:26:19.787Z,67.7
2017-06-14T00:27:19.290Z,67.7
2017-06-14T00:28:18.407Z,67.7
2017-06-14T00:29:17.634Z,67.9
2017-06-14T00:30:16.870Z,67.8
2017-06-14T00:31:15.979Z,67.8
2017-06-14T00:32:15.717Z,67.9
2017-06-14T00:33:14.971Z,68.2
2017-06-14T00:34:14.206Z,68.1
2017-06-14T00:35:13.439Z,68.3
2017-06-14T00:36:12.679Z,68.3
2017-06-14T00:36:43.107Z,68.3
2017-06-14T00:38:11.603Z,68.2
2017-06-14T00:39:10.330Z,68.4
2017-06-14T00:40:09.563Z,68.3
2017-06-14T00:41:09.371Z,68.7
2017-06-14T00:42:08.113Z,68.7
2017-06-14T00:43:07.232Z,68.5
2017-06-14T00:44:06.344Z,68.5
2017-06-14T00:46:05.233Z,68.7
2017-06-14T00:47:04.231Z,68.6
2017-06-14T00:48:03.544Z,68.6
2017-06-14T00:49:02.660Z,68.5
2017-06-14T00:50:01.848Z,68.4
2017-06-14T00:51:01.349Z,68.4
2017-06-14T00:52:00.497Z,68.6
2017-06-14T00:52:59.613Z,68.6
2017-06-14T00:53:58.844Z,68.5
2017-06-14T00:54:29.272Z,68.5
2017-06-14T00:55:00.398Z,68.5
2017-06-14T00:55:30.021Z,68.5
2017-06-14T00:56:00.559Z,68.8
2017-06-14T00:56:56.765Z,68.7
2017-06-14T00:57:55.881Z,68.9
2017-06-14T00:58:55.377Z,68.7
2017-06-14T00:59:54.490Z,69
2017-06-14T01:00:53.606Z,68.7
2017-06-14T01:01:53.109Z,68.7
2017-06-14T01:02:52.341Z,68.7
2017-06-14T01:04:50.527Z,68.6
2017-06-14T01:05:49.764Z,68.8
2017-06-14T01:06:48.899Z,69
2017-06-14T01:08:47.520Z,69.2
2017-06-14T01:09:46.752Z,69.1
2017-06-14T01:10:46.372Z,69.1
2017-06-14T01:11:45.605Z,69.1
2017-06-14T01:12:44.836Z,69.1
2017-06-14T01:13:43.950Z,69.1
2017-06-14T01:14:43.180Z,69.1
2017-06-14T01:15:42.291Z,69.3
2017-06-14T01:16:41.528Z,69.5
2017-06-14T01:18:40.147Z,69.7
2017-06-14T01:19:39.141Z,69.7
2017-06-14T01:20:38.368Z,69.7
2017-06-14T01:21:37.479Z,69.7
2017-06-14T01:22:37.219Z,70.3
2017-06-14T01:23:36.451Z,70.5
2017-06-14T01:24:35.689Z,70.7
2017-06-14T01:25:34.923Z,71.3
2017-06-14T01:26:33.921Z,71.2
2017-06-14T01:27:33.159Z,71.3
2017-06-14T01:28:32.392Z,71.3
2017-06-14T01:29:31.716Z,71.4
2017-06-14T01:30:30.947Z,71.2
2017-06-14T01:31:30.178Z,71.3
2017-06-14T01:32:29.409Z,71.5
2017-06-14T01:33:28.526Z,71.4
2017-06-14T01:34:27.766Z,71.2
2017-06-14T01:35:26.999Z,71.2
2017-06-14T01:36:26.234Z,71.2
2017-06-14T01:37:25.851Z,71.5
2017-06-14T01:38:25.084Z,71.5
2017-06-14T01:39:24.315Z,71.5
2017-06-14T01:40:23.546Z,71.1
2017-06-14T01:41:22.783Z,71.3
2017-06-14T01:43:20.900Z,71.3
2017-06-14T01:44:20.140Z,71.3
2017-06-14T01:45:19.758Z,71.4
2017-06-14T01:46:18.991Z,71.3
2017-06-14T01:47:17.992Z,71.5
2017-06-14T01:49:16.611Z,71.7
2017-06-14T01:50:15.848Z,71.8
2017-06-14T01:51:14.957Z,71.8
2017-06-14T01:52:14.078Z,71.8
2017-06-14T01:53:13.693Z,71.9
2017-06-14T01:54:12.858Z,71.7
2017-06-14T01:55:11.969Z,71.9
2017-06-14T01:56:11.205Z,71.9
2017-06-14T01:57:10.440Z,71.9
2017-06-14T01:58:09.668Z,71.7
2017-06-14T01:59:08.901Z,71.8
2017-06-14T02:00:08.137Z,71.8
2017-06-14T02:01:07.259Z,71.7
2017-06-14T02:02:06.374Z,71.5
2017-06-14T02:03:05.609Z,71.7
2017-06-14T02:04:04.844Z,71.8
2017-06-14T02:05:03.844Z,71.9
2017-06-14T02:06:03.590Z,71.8
2017-06-14T02:07:02.828Z,71.9
2017-06-14T02:08:01.946Z,71.8
2017-06-14T02:09:01.178Z,72
2017-06-14T02:10:00.413Z,71.9
2017-06-14T02:10:59.526Z,72.1
2017-06-14T02:11:58.766Z,71.9
2017-06-14T02:12:58.074Z,72
2017-06-14T02:13:57.193Z,72
2017-06-14T02:14:56.427Z,72.1
2017-06-14T02:15:55.653Z,71.9
2017-06-14T02:16:54.882Z,72
2017-06-14T02:17:54.499Z,71.9
2017-06-14T02:18:54.157Z,72.1
2017-06-14T02:19:52.888Z,72.2
2017-06-14T02:20:52.119Z,72.2
2017-06-14T02:21:51.349Z,72.2
2017-06-14T02:22:50.461Z,72.4
2017-06-14T02:23:49.455Z,72.3
2017-06-14T02:24:49.782Z,72.3
2017-06-14T02:25:48.014Z,72.8
2017-06-14T02:26:47.751Z,72.7
2017-06-14T02:27:46.990Z,72.7
2017-06-14T02:28:46.104Z,72.8
2017-06-14T02:29:45.342Z,72.8
2017-06-14T02:30:44.920Z,72.7
2017-06-14T02:31:43.657Z,72.7
2017-06-14T02:32:42.781Z,72.6
2017-06-14T02:33:42.298Z,72.7
2017-06-14T02:34:41.432Z,72.6
2017-06-14T02:35:40.674Z,72.7
2017-06-14T02:36:39.670Z,72.6
2017-06-14T02:37:38.910Z,72.8
2017-06-14T02:38:38.145Z,72.9
2017-06-14T02:39:37.385Z,72.8
2017-06-14T02:40:36.496Z,72.9
2017-06-14T02:41:36.238Z,72.8
2017-06-14T02:42:35.473Z,72.9
2017-06-14T02:43:34.703Z,73
2017-06-14T02:44:33.933Z,72.9
2017-06-14T02:45:33.742Z,73.1
2017-06-14T02:46:31.971Z,73.1
2017-06-14T02:47:31.199Z,73
2017-06-14T02:49:29.816Z,73
2017-06-14T02:50:29.045Z,73.3
2017-06-14T02:51:28.270Z,73.4
2017-06-14T02:52:27.489Z,73.7
2017-06-14T02:53:26.715Z,73.9
2017-06-14T02:54:25.817Z,74.2
2017-06-14T02:55:25.041Z,74.1
2017-06-14T02:56:24.271Z,74.1
2017-06-14T02:57:23.496Z,74.2
2017-06-14T02:58:22.721Z,74.2
2017-06-14T02:59:21.974Z,74.4
2017-06-14T03:00:21.196Z,74.6
2017-06-14T03:01:20.298Z,74.7
2017-06-14T03:02:19.787Z,75
2017-06-14T03:03:19.084Z,75
2017-06-14T03:04:18.184Z,75
2017-06-14T03:05:17.400Z,75
2017-06-14T03:06:16.625Z,75
2017-06-14T03:07:15.840Z,75
2017-06-14T03:08:15.445Z,75.3
2017-06-14T03:09:15.243Z,75.4
2017-06-14T03:10:13.461Z,75.5
2017-06-14T03:11:12.701Z,75.6
2017-06-14T03:12:11.919Z,75.9
2017-06-14T03:13:11.130Z,75.8
2017-06-14T03:14:10.381Z,75.7
2017-06-14T03:15:09.608Z,75.8
2017-06-14T03:16:08.713Z,75.6
2017-06-14T03:17:08.436Z,75.6
2017-06-14T03:18:07.656Z,75.6
2017-06-14T03:19:06.875Z,75.6
2017-06-14T03:20:05.973Z,75.8
2017-06-14T03:21:05.269Z,75.8
2017-06-14T03:22:04.257Z,75.8
2017-06-14T03:23:03.481Z,75.6
2017-06-14T03:24:03.271Z,75.6
2017-06-14T03:25:01.872Z,75.6
2017-06-14T03:26:01.103Z,75.8
2017-06-14T03:27:00.383Z,75.9
2017-06-14T03:27:59.656Z,75.9
2017-06-14T03:28:58.873Z,76
2017-06-14T03:29:58.095Z,75.9
2017-06-14T03:30:57.318Z,75.9
2017-06-14T03:31:57.096Z,75.9
2017-06-14T03:32:55.813Z,75.7
2017-06-14T03:33:55.037Z,75.6
2017-06-14T03:34:25.328Z,75.6
2017-06-14T03:34:56.127Z,75.7
2017-06-14T03:35:53.333Z,75.7
2017-06-14T03:36:52.556Z,75.7
2017-06-14T03:37:51.777Z,75.8
2017-06-14T03:38:51.306Z,75.6
2017-06-14T03:39:50.414Z,75.6
2017-06-14T03:40:49.634Z,75.6
2017-06-14T03:41:48.751Z,75.6
2017-06-14T03:42:48.545Z,75.6
2017-06-14T03:43:47.261Z,75.6
2017-06-14T03:44:46.364Z,75.4
2017-06-14T03:45:45.583Z,75.2
2017-06-14T03:46:44.806Z,75
2017-06-14T03:47:44.029Z,74.6
2017-06-14T03:48:42.895Z,74.3
2017-06-14T03:49:42.621Z,74
2017-06-14T03:50:41.785Z,73.7
2017-06-14T03:51:41.005Z,73.5
2017-06-14T03:52:40.231Z,73.2
2017-06-14T03:53:39.336Z,73
2017-06-14T03:54:38.349Z,72.7
2017-06-14T03:55:37.575Z,72.3
2017-06-14T03:56:36.741Z,71.9
2017-06-14T03:57:35.962Z,71.5
2017-06-14T03:58:35.186Z,71.3
2017-06-14T03:59:34.402Z,71.3
2017-06-14T04:00:33.624Z,70.8
2017-06-14T04:01:32.842Z,70.3
2017-06-14T04:02:32.063Z,69.9
2017-06-14T04:03:31.285Z,69.5
2017-06-14T04:04:30.504Z,68.9
2017-06-14T04:05:29.728Z,68.6
2017-06-14T04:06:28.955Z,68.6
2017-06-14T04:07:28.180Z,68.4
2017-06-14T04:08:27.170Z,68.4
2017-06-14T04:09:26.895Z,68.3
2017-06-14T04:10:26.112Z,68.7
2017-06-14T04:12:24.227Z,68.1
2017-06-14T04:13:23.448Z,68.2
2017-06-14T04:15:21.942Z,68
2017-06-14T04:16:21.167Z,68
2017-06-14T04:17:20.394Z,68
2017-06-14T04:18:19.626Z,67.8
2017-06-14T04:19:18.849Z,67.9
2017-06-14T04:20:18.075Z,67.7
2017-06-14T04:21:17.302Z,67.6
2017-06-14T04:22:16.521Z,67.4
2017-06-14T04:23:15.738Z,67.5
2017-06-14T04:24:14.966Z,67.3
2017-06-14T04:25:14.761Z,67.1
2017-06-14T04:26:13.481Z,67
2017-06-14T04:27:12.710Z,66.9
2017-06-14T04:28:12.511Z,66.6
2017-06-14T04:29:11.229Z,66.4
2017-06-14T04:30:10.451Z,65.9
2017-06-14T04:31:09.555Z,65.9
2017-06-14T04:32:08.780Z,64.9
2017-06-14T04:33:07.888Z,64.7
2017-06-14T04:34:06.991Z,64.7
2017-06-14T04:35:06.296Z,64.7
2017-06-14T04:36:05.395Z,63.5
2017-06-14T04:37:05.011Z,63.4
2017-06-14T04:38:04.238Z,63.2
2017-06-14T04:39:03.457Z,62.5
2017-06-14T04:40:02.561Z,62.2
2017-06-14T04:41:01.780Z,62.2
2017-06-14T04:42:00.881Z,61.5
2017-06-14T04:43:00.097Z,61
2017-06-14T04:43:59.768Z,60.7
2017-06-14T04:44:58.480Z,60.1
2017-06-14T04:45:57.525Z,60.4
2017-06-14T04:47:56.723Z,59.9
2017-06-14T04:48:55.887Z,59.6
2017-06-14T04:49:54.368Z,59.7
2017-06-14T04:50:53.969Z,59.5
2017-06-14T04:51:52.838Z,59.5
2017-06-14T04:52:52.561Z,59.1
2017-06-14T04:53:51.540Z,59
2017-06-14T04:54:50.525Z,59
2017-06-14T04:55:50.247Z,58.7
2017-06-14T04:56:49.351Z,58.6
2017-06-14T04:57:48.569Z,58.4
2017-06-14T04:58:48.359Z,58
2017-06-14T04:59:47.093Z,58
2017-06-14T05:00:46.317Z,57.5
2017-06-14T05:01:45.535Z,57.4
2017-06-14T05:02:44.757Z,57.3
2017-06-14T05:03:43.625Z,57.5
2017-06-14T05:04:43.235Z,57.6
2017-06-14T05:05:42.337Z,57
2017-06-14T05:06:41.570Z,57.1
2017-06-14T05:07:40.668Z,57
2017-06-14T05:08:39.887Z,57
2017-06-14T05:09:39.110Z,57
2017-06-14T05:10:38.329Z,56.7
2017-06-14T05:11:37.547Z,55.5
2017-06-14T05:12:36.765Z,55.8
2017-06-14T05:13:35.981Z,55.3
2017-06-14T05:14:35.199Z,55.1
2017-06-14T05:16:34.120Z,54.9
2017-06-14T05:17:32.838Z,54.9
2017-06-14T05:18:32.058Z,54.3
2017-06-14T05:19:31.283Z,54.8
2017-06-14T05:20:30.502Z,55
2017-06-14T05:21:30.101Z,54.7
2017-06-14T05:22:29.325Z,54.1
2017-06-14T05:23:28.541Z,53.6
2017-06-14T05:24:27.764Z,54.4
2017-06-14T05:25:26.870Z,54.5
2017-06-14T05:26:25.852Z,54.5
2017-06-14T05:27:25.340Z,54.6
2017-06-14T05:28:24.564Z,53.9
2017-06-14T05:29:23.782Z,54
2017-06-14T05:30:23.002Z,54.1
2017-06-14T05:31:22.108Z,53.9
2017-06-14T05:32:21.331Z,53.2
2017-06-14T05:33:21.158Z,53.6
2017-06-14T05:34:19.760Z,52.6
2017-06-14T05:35:19.052Z,52.5
2017-06-14T05:36:18.156Z,52.5
2017-06-14T05:37:17.882Z,52.3
2017-06-14T05:38:17.098Z,52.5
2017-06-14T05:39:16.202Z,52.4
2017-06-14T05:40:15.424Z,52.3
2017-06-14T05:41:15.210Z,52.1
2017-06-14T05:42:13.819Z,52.1
2017-06-14T05:43:13.083Z,52.1
2017-06-14T05:44:12.300Z,51.8
2017-06-14T05:45:11.520Z,51.4
2017-06-14T05:46:10.804Z,50.6
2017-06-14T05:47:10.497Z,50.9
2017-06-14T05:48:08.971Z,50.7
2017-06-14T05:49:08.696Z,50.7
2017-06-14T05:50:07.803Z,49.9
2017-06-14T05:51:07.026Z,50.6
2017-06-14T05:52:06.128Z,50.1
2017-06-14T05:53:05.413Z,50
2017-06-14T05:54:04.516Z,49.8
2017-06-14T05:55:04.751Z,50
2017-06-14T05:56:03.033Z,49.6
2017-06-14T05:57:02.255Z,49.4
2017-06-14T05:58:01.483Z,49.4
2017-06-14T05:59:00.967Z,49
2017-06-14T06:00:00.223Z,49
2017-06-14T06:00:59.449Z,49
2017-06-14T06:01:58.553Z,48.5
2017-06-14T06:02:57.772Z,48.9
2017-06-14T06:03:57.385Z,48.5
2017-06-14T06:04:56.481Z,48.2
2017-06-14T06:05:55.699Z,47.9
2017-06-14T06:07:54.187Z,47.6
2017-06-14T06:08:53.480Z,48.2
2017-06-14T06:09:52.698Z,48.4
2017-06-14T06:10:51.866Z,48.5
2017-06-14T06:11:51.088Z,49.2
2017-06-14T06:12:50.309Z,48.7
2017-06-14T06:13:49.527Z,48.7
2017-06-14T06:14:48.747Z,47.9
2017-06-14T06:15:48.034Z,48.3
2017-06-14T06:16:47.146Z,48.3
2017-06-14T06:17:46.868Z,48.3
2017-06-14T06:18:45.970Z,47.7
2017-06-14T06:19:45.259Z,47.8
2017-06-14T06:20:44.478Z,48
2017-06-14T06:21:43.694Z,47.8
2017-06-14T06:22:42.918Z,47.7
2017-06-14T06:23:42.020Z,47.9
2017-06-14T06:24:41.755Z,47.5
2017-06-14T06:25:40.750Z,48
2017-06-14T06:26:39.852Z,47.9
2017-06-14T06:27:39.460Z,47.9
2017-06-14T06:28:38.682Z,47.7
2017-06-14T06:29:37.903Z,47.7
2017-06-14T06:30:09.001Z,47.7
2017-06-14T06:30:39.029Z,48
2017-06-14T06:31:09.989Z,48
2017-06-14T06:32:35.393Z,49.1
2017-06-14T06:33:34.646Z,48.6
2017-06-14T06:34:33.858Z,48.6
2017-06-14T06:35:34.156Z,48.2
2017-06-14T06:36:32.872Z,48.4
2017-06-14T06:37:32.093Z,48.2
2017-06-14T06:38:31.762Z,47.9
2017-06-14T06:39:31.046Z,48.3
2017-06-14T06:40:29.767Z,47.8
2017-06-14T06:41:28.991Z,47.3
2017-06-14T06:42:28.284Z,47
2017-06-14T06:43:27.505Z,47
2017-06-14T06:44:26.723Z,46.5
2017-06-14T06:45:25.939Z,46
2017-06-14T06:46:25.163Z,45.9
2017-06-14T06:47:24.386Z,45.1
2017-06-14T06:48:23.609Z,44.9
2017-06-14T06:49:22.719Z,45.6
2017-06-14T06:50:22.215Z,45.4
2017-06-14T06:51:21.439Z,45.4
2017-06-14T06:52:20.662Z,45.4
2017-06-14T06:53:20.386Z,44.7
2017-06-14T06:54:19.497Z,44
2017-06-14T06:55:18.728Z,44.4
2017-06-14T06:56:17.835Z,44.3
2017-06-14T06:57:17.056Z,44.2
2017-06-14T06:58:16.168Z,43.4
2017-06-14T06:59:15.897Z,43.6
2017-06-14T07:00:15.173Z,43.7
2017-06-14T07:01:14.445Z,43.4
2017-06-14T07:02:13.663Z,44.6
2017-06-14T07:03:12.767Z,45.3
2017-06-14T07:04:12.552Z,44.9
2017-06-14T07:05:11.150Z,45.2
2017-06-14T07:06:10.878Z,45.1
2017-06-14T07:07:10.104Z,46.1
2017-06-14T07:09:08.661Z,46
2017-06-14T07:10:07.767Z,46.8
2017-06-14T07:11:06.992Z,46.3
2017-06-14T07:12:06.098Z,46.8
2017-06-14T07:13:05.638Z,46.5
2017-06-14T07:14:04.684Z,46
2017-06-14T07:15:04.414Z,45.8
2017-06-14T07:16:03.518Z,45
2017-06-14T07:17:02.804Z,44.3
2017-06-14T07:18:02.030Z,44.5
2017-06-14T07:19:01.291Z,43.4
2017-06-14T07:20:00.508Z,44
2017-06-14T07:20:59.616Z,42.9
2017-06-14T07:22:58.228Z,43.8
2017-06-14T07:23:57.949Z,43.9
2017-06-14T07:24:57.054Z,44.3
2017-06-14T07:25:56.190Z,44.3
2017-06-14T07:26:55.797Z,43.1
2017-06-14T07:27:54.913Z,43.6
2017-06-14T07:28:54.215Z,43.3
2017-06-14T07:29:53.314Z,43
2017-06-14T07:30:52.305Z,42.5
2017-06-14T07:31:51.911Z,42.2
2017-06-14T07:32:51.136Z,41.8
2017-06-14T07:33:50.356Z,41.9
2017-06-14T07:34:49.722Z,41.3
2017-06-14T07:35:48.948Z,41.4
2017-06-14T07:36:48.175Z,40.9
2017-06-14T07:37:47.896Z,41.4
2017-06-14T07:38:46.997Z,41
2017-06-14T07:39:46.796Z,40.6
2017-06-14T07:40:45.510Z,41
2017-06-14T07:41:15.925Z,41
2017-06-14T07:41:46.345Z,41.4
2017-06-14T07:42:44.056Z,41.4
2017-06-14T07:43:43.277Z,41.4
2017-06-14T07:44:42.505Z,41.2
2017-06-14T07:45:42.226Z,40.8
2017-06-14T07:46:41.325Z,41.4
2017-06-14T07:48:39.936Z,42
2017-06-14T07:49:39.043Z,41.8
2017-06-14T07:50:38.266Z,42.7
2017-06-14T07:51:37.994Z,43
2017-06-14T07:52:37.216Z,43.2
2017-06-14T07:53:36.440Z,43.2
2017-06-14T07:54:36.229Z,44.4
2017-06-14T07:55:34.947Z,43.4
2017-06-14T07:56:34.045Z,42.7
2017-06-14T07:57:33.771Z,41.7
2017-06-14T07:58:32.878Z,42.1
2017-06-14T07:59:32.099Z,42.1
2017-06-14T08:00:31.906Z,42.1
2017-06-14T08:01:30.539Z,41.6
2017-06-14T08:02:30.260Z,41.5
2017-06-14T08:03:29.360Z,40.3
2017-06-14T08:04:28.854Z,41
2017-06-14T08:05:28.143Z,41.1
2017-06-14T08:06:27.368Z,40.5
2017-06-14T08:07:26.597Z,40.6
2017-06-14T08:08:25.821Z,40.1
2017-06-14T08:09:25.038Z,39.6
2017-06-14T08:10:24.141Z,39.6
2017-06-14T08:11:23.752Z,39.2
2017-06-14T08:12:22.981Z,39
2017-06-14T08:13:22.087Z,39
2017-06-14T08:14:21.814Z,39.2
2017-06-14T08:15:21.035Z,40
2017-06-14T08:16:20.260Z,39.8
2017-06-14T08:17:19.490Z,39.8
2017-06-14T08:18:18.712Z,40.1
2017-06-14T08:19:18.519Z,38.7
2017-06-14T08:20:17.232Z,39.8
2017-06-14T08:21:16.848Z,39.7
2017-06-14T08:22:15.952Z,39.7
2017-06-14T08:23:15.175Z,38.4
2017-06-14T08:24:14.904Z,39
2017-06-14T08:25:14.145Z,39.1
2017-06-14T08:26:13.455Z,39.8
2017-06-14T08:27:12.703Z,41.1
2017-06-14T08:28:11.808Z,41.6
2017-06-14T08:29:11.024Z,42.4
2017-06-14T08:30:10.523Z,42.1
2017-06-14T08:31:09.628Z,41.8
2017-06-14T08:32:09.242Z,41.9
2017-06-14T08:33:08.463Z,41.1
2017-06-14T08:34:07.567Z,41.1
2017-06-14T08:35:07.328Z,41.1
2017-06-14T08:36:06.315Z,39.7
2017-06-14T08:37:05.535Z,39.9
2017-06-14T08:38:04.635Z,40.2
2017-06-14T08:39:04.358Z,40
2017-06-14T08:40:03.348Z,39.1
2017-06-14T08:41:03.079Z,38.5
2017-06-14T08:42:02.307Z,38
2017-06-14T08:43:01.525Z,36.1
2017-06-14T08:44:00.506Z,36.1
2017-06-14T08:45:00.227Z,37.4
2017-06-14T08:45:59.778Z,37.1
2017-06-14T08:46:30.388Z,37.1
2017-06-14T08:47:00.450Z,36.5
2017-06-14T08:47:30.744Z,36.5
2017-06-14T08:48:01.845Z,37
2017-06-14T08:48:32.341Z,37
2017-06-14T08:49:02.250Z,37.4
2017-06-14T08:49:32.662Z,37.4
2017-06-14T08:50:02.843Z,37.7
2017-06-14T08:50:56.472Z,37.7
2017-06-14T08:51:55.138Z,37.7
2017-06-14T08:52:54.868Z,37.7
2017-06-14T08:53:53.973Z,36.8
2017-06-14T08:54:53.189Z,37.9
2017-06-14T08:55:52.800Z,39.6
2017-06-14T08:56:51.903Z,40
2017-06-14T08:57:51.015Z,40.7
2017-06-14T08:58:50.505Z,40.6
2017-06-14T08:59:49.605Z,40.6
2017-06-14T09:00:49.219Z,38.2
2017-06-14T09:01:48.443Z,38.8
2017-06-14T09:02:48.167Z,39.2
2017-06-14T09:03:47.387Z,39.5
2017-06-14T09:04:46.495Z,38.2
2017-06-14T09:05:46.663Z,38.6
2017-06-14T09:06:45.385Z,38.8
2017-06-14T09:07:44.491Z,38.9
2017-06-14T09:08:43.656Z,38.9
2017-06-14T09:09:43.390Z,39.5
2017-06-14T09:10:42.616Z,40.1
2017-06-14T09:11:41.837Z,39.7
2017-06-14T09:12:41.055Z,39.8
2017-06-14T09:13:40.663Z,37.8
2017-06-14T09:15:39.270Z,36.7
2017-06-14T09:16:39.001Z,37.6
2017-06-14T09:17:37.721Z,37.2
2017-06-14T09:18:36.942Z,37.4
2017-06-14T09:19:36.668Z,37.7
2017-06-14T09:20:35.651Z,38.6
2017-06-14T09:21:35.141Z,39.1
2017-06-14T09:22:34.367Z,38.8
2017-06-14T09:23:33.591Z,39.1
2017-06-14T09:24:33.317Z,38.9
2017-06-14T09:25:32.538Z,38.9
2017-06-14T09:26:31.765Z,38.9
2017-06-14T09:27:30.997Z,40.7
2017-06-14T09:28:30.226Z,40.1
2017-06-14T09:29:29.968Z,40.3
2017-06-14T09:30:29.191Z,40.2
2017-06-14T09:31:28.413Z,39.6
2017-06-14T09:32:28.023Z,40.6
2017-06-14T09:33:27.250Z,40.1
2017-06-14T09:34:26.478Z,39.8
2017-06-14T09:35:25.703Z,39.4
2017-06-14T09:36:24.806Z,38.5
2017-06-14T09:37:24.293Z,38.5
2017-06-14T09:38:23.900Z,39.2
2017-06-14T09:39:23.119Z,38.9
2017-06-14T09:40:21.989Z,37.6
2017-06-14T09:41:21.486Z,37.7
2017-06-14T09:43:20.601Z,38
2017-06-14T09:44:19.828Z,37.8
2017-06-14T09:45:19.054Z,37.7
2017-06-14T09:46:18.783Z,37.7
2017-06-14T09:47:18.094Z,38.6
2017-06-14T09:48:17.314Z,38.9
2017-06-14T09:49:16.537Z,38.3
2017-06-14T09:50:15.832Z,39
2017-06-14T09:51:15.055Z,39.2
2017-06-14T09:52:14.780Z,39.2
2017-06-14T09:53:14.005Z,39
2017-06-14T09:54:13.110Z,40
2017-06-14T09:55:12.833Z,39.4
2017-06-14T09:56:11.942Z,39.5
2017-06-14T09:57:11.044Z,39.2
2017-06-14T09:58:10.409Z,39.2
2017-06-14T09:59:10.695Z,38.8
2017-06-14T10:00:09.295Z,38.8
2017-06-14T10:01:08.521Z,38.8
2017-06-14T10:02:08.127Z,39.4
2017-06-14T10:03:08.075Z,38.8
2017-06-14T10:04:06.670Z,38.3
2017-06-14T10:05:06.272Z,37.5
2017-06-14T10:06:05.295Z,37.7
2017-06-14T10:07:05.017Z,37.6
2017-06-14T10:08:04.799Z,37.1
2017-06-14T10:09:03.402Z,37.7
2017-06-14T10:10:03.128Z,36.9
2017-06-14T10:11:02.352Z,37.5
2017-06-14T10:12:01.581Z,37.2
2017-06-14T10:14:00.068Z,37.6
2017-06-14T10:14:59.788Z,37.6
2017-06-14T10:15:59.010Z,38.2
2017-06-14T10:16:58.229Z,38.2
2017-06-14T10:17:57.961Z,38.2
2017-06-14T10:18:57.196Z,38.1
2017-06-14T10:19:56.304Z,38.6
2017-06-14T10:20:56.593Z,38.9
2017-06-14T10:21:55.187Z,38.4
2017-06-14T10:22:54.413Z,38.4
2017-06-14T10:23:54.141Z,38.1
2017-06-14T10:24:53.361Z,38.9
2017-06-14T10:25:52.457Z,39.3
2017-06-14T10:26:52.759Z,38.8
2017-06-14T10:27:51.486Z,39.4
2017-06-14T10:28:50.590Z,39
2017-06-14T10:29:49.901Z,39.2
2017-06-14T10:30:49.631Z,39.4
2017-06-14T10:31:48.855Z,40.2
2017-06-14T10:32:47.959Z,39.2
2017-06-14T10:33:47.445Z,39.2
2017-06-14T10:34:47.053Z,39.2
2017-06-14T10:35:46.161Z,39.2
2017-06-14T10:36:45.762Z,40.1
2017-06-14T10:37:44.874Z,40.8
2017-06-14T10:38:43.983Z,40.6
2017-06-14T10:40:43.106Z,39.6
2017-06-14T10:41:42.908Z,39.9
2017-06-14T10:42:41.628Z,40.5
2017-06-14T10:43:41.347Z,40.8
2017-06-14T10:44:40.568Z,41.2
2017-06-14T10:45:39.667Z,40.8
2017-06-14T10:46:39.393Z,41.3
2017-06-14T10:47:38.611Z,40.3
2017-06-14T10:48:38.220Z,41.8
2017-06-14T10:49:37.434Z,42.4
2017-06-14T10:50:36.924Z,41.5
2017-06-14T10:51:36.030Z,41.5
2017-06-14T10:52:35.628Z,41.4
2017-06-14T10:53:34.847Z,40.9
2017-06-14T10:54:34.064Z,41.2
2017-06-14T10:55:34.926Z,41.4
2017-06-14T10:56:33.031Z,40.9
2017-06-14T10:57:32.835Z,41.1
2017-06-14T10:58:32.054Z,40.5
2017-06-14T10:59:31.275Z,41.1
2017-06-14T11:00:30.499Z,40.8
2017-06-14T11:01:29.723Z,40
2017-06-14T11:02:29.446Z,40.3
2017-06-14T11:03:28.669Z,41.3
2017-06-14T11:04:27.891Z,41.7
2017-06-14T11:05:27.622Z,41.6
2017-06-14T11:06:26.846Z,41.4
2017-06-14T11:07:25.947Z,42.1
2017-06-14T11:08:25.677Z,41.8
2017-06-14T11:09:24.902Z,41.8
2017-06-14T11:10:24.092Z,40.4
2017-06-14T11:11:24.398Z,40.3
2017-06-14T11:12:22.996Z,40.3
2017-06-14T11:13:22.611Z,40.8
2017-06-14T11:14:21.837Z,40.4
2017-06-14T11:15:21.557Z,40.9
2017-06-14T11:16:20.658Z,40.9
2017-06-14T11:17:20.383Z,42.1
2017-06-14T11:18:19.368Z,42.4
2017-06-14T11:19:19.090Z,42.8
2017-06-14T11:20:18.082Z,43.2
2017-06-14T11:21:17.575Z,42.9
2017-06-14T11:22:17.296Z,42.8
2017-06-14T11:23:16.595Z,42.2
2017-06-14T11:24:15.820Z,41.5
2017-06-14T11:25:15.543Z,42.7
2017-06-14T11:26:14.665Z,42.7
2017-06-14T11:27:13.891Z,42.7
2017-06-14T11:28:13.637Z,42.6
2017-06-14T11:29:12.869Z,42.7
2017-06-14T11:30:12.354Z,43
2017-06-14T11:31:11.571Z,42.7
2017-06-14T11:32:11.055Z,42.9
2017-06-14T11:33:10.659Z,43.1
2017-06-14T11:35:09.269Z,42.8
2017-06-14T11:36:08.372Z,42.9
2017-06-14T11:37:07.980Z,42.2
2017-06-14T11:38:07.700Z,40.2
2017-06-14T11:39:06.917Z,40.5
2017-06-14T11:40:06.018Z,40.3
2017-06-14T11:41:05.745Z,40.8
2017-06-14T11:42:04.847Z,40.5
2017-06-14T11:43:04.845Z,40.3
2017-06-14T11:44:03.948Z,40.3
2017-06-14T11:45:03.562Z,40.3
2017-06-14T11:46:03.051Z,39.9
2017-06-14T11:47:02.033Z,39.6
2017-06-14T11:48:01.640Z,40.5
2017-06-14T11:50:00.516Z,41.4
2017-06-14T11:50:59.746Z,41.7
2017-06-14T11:52:00.466Z,40.4
2017-06-14T11:52:58.679Z,40.8
2017-06-14T11:53:58.279Z,39.4
2017-06-14T11:54:57.496Z,40.3
2017-06-14T11:55:28.025Z,40.3
2017-06-14T11:55:58.559Z,41.2
2017-06-14T11:56:56.266Z,40.4
2017-06-14T11:57:56.580Z,40.9
2017-06-14T11:58:55.302Z,41.2
2017-06-14T11:59:54.913Z,41.2
2017-06-14T12:00:54.137Z,41.3
2017-06-14T12:01:53.749Z,41.3
2017-06-14T12:02:53.544Z,41.3
2017-06-14T12:03:52.527Z,40.5
2017-06-14T12:04:51.752Z,41.2
2017-06-14T12:05:51.358Z,41.4
2017-06-14T12:06:50.849Z,41.3
2017-06-14T12:08:49.339Z,41.6
2017-06-14T12:09:49.632Z,41.6
2017-06-14T12:10:48.733Z,41
2017-06-14T12:11:47.898Z,41
2017-06-14T12:13:47.035Z,39.5
2017-06-14T12:14:46.015Z,40.3
2017-06-14T12:15:45.622Z,40.7
2017-06-14T12:16:45.376Z,40.2
2017-06-14T12:17:44.601Z,39.3
2017-06-14T12:18:43.828Z,39.5
2017-06-14T12:20:42.828Z,39.5
2017-06-14T12:21:42.447Z,39.6
2017-06-14T12:22:42.060Z,40
2017-06-14T12:23:41.170Z,39.5
2017-06-14T12:24:40.774Z,39.4
2017-06-14T12:25:39.874Z,39.1
2017-06-14T12:26:39.597Z,39.8
2017-06-14T12:27:38.819Z,39.4
2017-06-14T12:28:38.428Z,39.9
2017-06-14T12:29:38.148Z,39.7
2017-06-14T12:30:37.252Z,39.7
2017-06-14T12:31:36.975Z,38.9
2017-06-14T12:32:36.088Z,38.1
2017-06-14T12:33:35.816Z,38.6
2017-06-14T12:34:34.926Z,39.6
2017-06-14T12:35:34.646Z,39.1
2017-06-14T12:36:34.368Z,38.8
2017-06-14T12:37:33.588Z,38.4
2017-06-14T12:38:04.183Z,38.4
2017-06-14T12:38:34.775Z,38.4
2017-06-14T12:39:05.871Z,38.4
2017-06-14T12:39:35.859Z,38.4
2017-06-14T12:40:32.062Z,39.1
2017-06-14T12:41:31.436Z,39.5
2017-06-14T12:42:30.882Z,39.3
2017-06-14T12:43:30.494Z,38.6
2017-06-14T12:44:29.604Z,38.8
2017-06-14T12:45:29.214Z,39.3
2017-06-14T12:47:28.205Z,37.5
2017-06-14T12:48:27.816Z,39
2017-06-14T12:49:27.040Z,39.1
2017-06-14T12:50:26.528Z,38.9
2017-06-14T12:51:26.253Z,38.9
2017-06-14T12:52:25.354Z,39.4
2017-06-14T12:54:25.048Z,38.9
2017-06-14T12:55:24.149Z,39.2
2017-06-14T12:56:23.251Z,39.2
2017-06-14T12:57:22.977Z,39.7
2017-06-14T12:58:22.197Z,39.9
2017-06-14T12:59:21.797Z,39.2
2017-06-14T13:00:21.526Z,38.3
2017-06-14T13:01:20.744Z,38
2017-06-14T13:02:20.476Z,38.2
2017-06-14T13:03:19.710Z,38.5
2017-06-14T13:04:19.327Z,38.3
2017-06-14T13:05:19.113Z,38.3
2017-06-14T13:06:18.912Z,37.4
2017-06-14T13:07:17.629Z,37.4
2017-06-14T13:08:17.355Z,37.4
2017-06-14T13:09:16.577Z,38.1
2017-06-14T13:10:16.301Z,38.6
2017-06-14T13:11:15.539Z,38.8
2017-06-14T13:12:15.150Z,38.4
2017-06-14T13:13:14.386Z,37.9
2017-06-14T13:14:14.011Z,37.9
2017-06-14T13:15:13.620Z,37.9
2017-06-14T13:16:12.927Z,37.7
2017-06-14T13:17:12.657Z,37
2017-06-14T13:18:11.878Z,37
2017-06-14T13:19:11.603Z,37.7
2017-06-14T13:20:10.839Z,37.3
2017-06-14T13:21:10.567Z,37.8
2017-06-14T13:22:09.793Z,38.5
2017-06-14T13:23:09.522Z,37.9
2017-06-14T13:24:08.752Z,37.7
2017-06-14T13:25:08.479Z,37.4
2017-06-14T13:26:07.735Z,37.7
2017-06-14T13:27:07.457Z,37.8
2017-06-14T13:28:07.060Z,37.7
2017-06-14T13:29:06.110Z,38.2
2017-06-14T13:30:05.485Z,37.7